createdAt,value
2017-02-20T00:00:58.221Z,18.06
2017-02-20T00:02:09.250Z,18.11
2017-02-20T00:03:20.004Z,18.11
2017-02-20T00:04:30.767Z,18.11
2017-02-20T00:05:41.532Z,18.15
2017-02-20T00:06:51.474Z,18.15
2017-02-20T00:08:02.089Z,18.08
2017-02-20T00:09:12.036Z,18.11
2017-02-20T00:10:22.801Z,18.11
2017-02-20T00:11:32.773Z,18.13
2017-02-20T00:12:43.519Z,18.12
2017-02-20T00:13:54.152Z,18.16
2017-02-20T00:15:04.121Z,18.12
2017-02-20T00:16:14.087Z,18.12
2017-02-20T00:17:24.440Z,18.15
2017-02-20T00:18:34.788Z,18.12
2017-02-20T00:19:45.794Z,18.18
2017-02-20T00:20:56.182Z,18.06
2017-02-20T00:22:06.959Z,18.12
2017-02-20T00:23:16.520Z,18.11
2017-02-20T00:24:26.508Z,18.11
2017-02-20T00:25:37.500Z,18.15
2017-02-20T00:26:48.255Z,18.13
2017-02-20T00:27:58.607Z,18.12
2017-02-20T00:29:08.981Z,18.09
2017-02-20T00:30:18.949Z,18.09
2017-02-20T00:31:29.569Z,18.08
2017-02-20T00:32:39.922Z,18.03
2017-02-20T00:33:49.870Z,18.15
2017-02-20T00:35:00.230Z,18.09
2017-02-20T00:36:10.976Z,18.12
2017-02-20T00:37:21.976Z,18.16
2017-02-20T00:38:31.944Z,18.09
2017-02-20T00:39:41.902Z,18.13
2017-02-20T00:40:52.632Z,18.16
2017-02-20T00:42:03.399Z,18.13
2017-02-20T00:43:13.221Z,18.09
2017-02-20T00:44:23.566Z,18.13
2017-02-20T00:45:34.308Z,18.12
2017-02-20T00:46:44.664Z,18.11
2017-02-20T00:47:55.441Z,18.12
2017-02-20T00:49:06.481Z,18.16
2017-02-20T00:50:16.842Z,18.08
2017-02-20T00:51:27.595Z,18.09
2017-02-20T00:52:38.350Z,18.08
2017-02-20T00:53:48.348Z,18.09
2017-02-20T00:54:58.196Z,18.13
2017-02-20T00:56:08.552Z,18.21
2017-02-20T00:57:19.307Z,18.23
2017-02-20T00:58:30.066Z,18.12
2017-02-20T00:59:40.826Z,18.11
2017-02-20T01:00:51.461Z,18.13
2017-02-20T01:02:01.799Z,18.08
2017-02-20T01:03:11.753Z,18.09
2017-02-20T01:04:21.704Z,18.08
2017-02-20T01:05:32.056Z,18.08
2017-02-20T01:06:42.311Z,18.16
2017-02-20T01:07:52.660Z,18.23
2017-02-20T01:09:02.200Z,18.23
2017-02-20T01:10:12.562Z,18.09
2017-02-20T01:11:22.513Z,18.13
2017-02-20T01:12:32.711Z,18.23
2017-02-20T01:13:42.664Z,18.19
2017-02-20T01:14:52.622Z,18.13
2017-02-20T01:16:02.981Z,18.15
2017-02-20T01:17:13.713Z,18.09
2017-02-20T01:18:24.387Z,18.26
2017-02-20T01:19:33.534Z,18.13
2017-02-20T01:20:43.863Z,18.21
2017-02-20T01:21:53.838Z,18.24
2017-02-20T01:23:04.596Z,18.24
2017-02-20T01:24:15.575Z,18.23
2017-02-20T01:25:25.508Z,18.08
2017-02-20T01:26:36.245Z,18.18
2017-02-20T01:27:47.015Z,18.08
2017-02-20T01:28:57.355Z,18.11
2017-02-20T01:30:07.939Z,18.21
2017-02-20T01:31:18.288Z,18.11
2017-02-20T01:32:27.850Z,18.24
2017-02-20T01:33:37.809Z,18.23
2017-02-20T01:34:48.546Z,18.21
2017-02-20T01:35:59.217Z,18.11
2017-02-20T01:37:09.188Z,18.19
2017-02-20T01:38:19.531Z,18.19
2017-02-20T01:39:29.476Z,18.13
2017-02-20T01:40:39.815Z,18.11
2017-02-20T01:41:50.474Z,18.26
2017-02-20T01:43:00.824Z,18.12
2017-02-20T01:44:11.172Z,18.08
2017-02-20T01:45:21.523Z,18.15
2017-02-20T01:46:31.869Z,18.13
2017-02-20T01:47:42.113Z,18.13
2017-02-20T01:48:53.540Z,18.15
2017-02-20T01:50:03.896Z,18.08
2017-02-20T01:51:13.844Z,18.09
2017-02-20T01:52:24.186Z,18.24
2017-02-20T01:53:34.871Z,18.24
2017-02-20T01:54:44.807Z,18.19
2017-02-20T01:55:55.559Z,18.16
2017-02-20T01:57:06.309Z,18.08
2017-02-20T01:58:15.857Z,18.16
2017-02-20T01:59:26.442Z,18.09
2017-02-20T02:00:36.410Z,18.09
2017-02-20T02:01:46.761Z,18.08
2017-02-20T02:02:57.530Z,18.16
2017-02-20T02:04:07.103Z,18.13
2017-02-20T02:05:16.920Z,18.09
2017-02-20T02:06:26.871Z,18.19
2017-02-20T02:07:37.610Z,18.11
2017-02-20T02:08:47.937Z,18.06
2017-02-20T02:09:57.484Z,18.11
2017-02-20T02:11:07.692Z,18.13
2017-02-20T02:12:17.652Z,18.21
2017-02-20T02:13:27.990Z,18.09
2017-02-20T02:14:37.579Z,18.12
2017-02-20T02:15:47.927Z,18.12
2017-02-20T02:16:58.170Z,18.13
2017-02-20T02:18:08.927Z,18.21
2017-02-20T02:19:18.865Z,18.15
2017-02-20T02:20:28.827Z,18.13
2017-02-20T02:21:39.169Z,18.13
2017-02-20T02:22:50.230Z,18.27
2017-02-20T02:24:00.570Z,18.15
2017-02-20T02:25:10.538Z,18.16
2017-02-20T02:26:20.878Z,18.15
2017-02-20T02:27:31.243Z,18.15
2017-02-20T02:28:41.888Z,18.08
2017-02-20T02:29:51.440Z,18.12
2017-02-20T02:31:01.797Z,18.11
2017-02-20T02:32:12.538Z,18.16
2017-02-20T02:33:23.268Z,18.13
2017-02-20T02:34:33.073Z,18.12
2017-02-20T02:35:43.462Z,18.09
2017-02-20T02:36:53.799Z,18.09
2017-02-20T02:38:04.535Z,18.15
2017-02-20T02:39:14.865Z,18.15
2017-02-20T02:40:25.514Z,18.18
2017-02-20T02:41:36.250Z,18.08
2017-02-20T02:42:46.602Z,18.11
2017-02-20T02:43:56.939Z,18.05
2017-02-20T02:45:07.668Z,18.05
2017-02-20T02:46:18.691Z,18.13
2017-02-20T02:47:29.031Z,18.05
2017-02-20T02:48:39.375Z,18.13
2017-02-20T02:49:50.119Z,18.08
2017-02-20T02:51:00.480Z,18.16
2017-02-20T02:52:11.120Z,18.05
2017-02-20T02:53:21.469Z,18.12
2017-02-20T02:54:31.826Z,18.13
2017-02-20T02:55:41.812Z,18.08
2017-02-20T02:56:52.179Z,18.15
2017-02-20T02:58:02.843Z,18.13
2017-02-20T02:59:12.428Z,18.08
2017-02-20T03:00:22.775Z,18.13
2017-02-20T03:01:33.124Z,18.12
2017-02-20T03:02:43.088Z,18.09
2017-02-20T03:03:52.923Z,18.12
2017-02-20T03:05:03.265Z,18.13
2017-02-20T03:06:13.223Z,18.11
2017-02-20T03:07:23.555Z,18.12
2017-02-20T03:08:33.511Z,18.12
2017-02-20T03:09:44.173Z,18.06
2017-02-20T03:10:54.916Z,18.15
2017-02-20T03:12:05.662Z,18.06
2017-02-20T03:13:16.011Z,18.12
2017-02-20T03:14:25.946Z,18.12
2017-02-20T03:15:35.762Z,18.12
2017-02-20T03:16:45.729Z,18.06
2017-02-20T03:17:55.690Z,18.09
2017-02-20T03:19:06.042Z,18.11
2017-02-20T03:20:16.030Z,18.05
2017-02-20T03:21:26.213Z,18.13
2017-02-20T03:22:35.780Z,18.06
2017-02-20T03:23:46.517Z,18.11
2017-02-20T03:24:56.853Z,18.15
2017-02-20T03:26:06.807Z,18.05
2017-02-20T03:27:17.015Z,18.12
2017-02-20T03:28:27.358Z,18.13
2017-02-20T03:29:37.316Z,18.15
2017-02-20T03:30:47.284Z,18.12
2017-02-20T03:31:58.017Z,18.06
2017-02-20T03:33:09.095Z,18.06
2017-02-20T03:34:19.841Z,18.11
2017-02-20T03:35:29.422Z,18.13
2017-02-20T03:36:39.360Z,18.13
2017-02-20T03:37:49.697Z,18.05
2017-02-20T03:38:59.918Z,18.08
2017-02-20T03:40:10.265Z,18.02
2017-02-20T03:41:20.254Z,18.12
2017-02-20T03:42:30.593Z,18.12
2017-02-20T03:43:40.551Z,18.08
2017-02-20T03:44:50.798Z,18.08
2017-02-20T03:46:01.543Z,18.09
2017-02-20T03:47:11.881Z,18.06
2017-02-20T03:48:22.234Z,18.03
2017-02-20T03:49:32.609Z,18.08
2017-02-20T03:50:42.820Z,18.06
2017-02-20T03:51:53.575Z,18.09
2017-02-20T03:53:03.536Z,18.15
2017-02-20T03:54:14.267Z,18.13
2017-02-20T03:55:24.615Z,18.05
2017-02-20T03:56:34.827Z,18.13
2017-02-20T03:57:44.381Z,18.11
2017-02-20T03:58:54.357Z,17.98
2017-02-20T04:00:04.320Z,17.97
2017-02-20T04:01:15.051Z,18.02
2017-02-20T04:02:26.039Z,18.03
2017-02-20T04:03:35.992Z,18.05
2017-02-20T04:04:46.362Z,18.05
2017-02-20T04:05:56.721Z,18.05
2017-02-20T04:07:07.067Z,18.15
2017-02-20T04:08:17.262Z,18.05
2017-02-20T04:09:28.008Z,18.12
2017-02-20T04:10:38.788Z,18.02
2017-02-20T04:11:49.124Z,18.03
2017-02-20T04:12:59.070Z,18.05
2017-02-20T04:14:10.079Z,18.05
2017-02-20T04:15:19.622Z,18.03
2017-02-20T04:16:29.970Z,18
2017-02-20T04:17:39.924Z,18.13
2017-02-20T04:18:50.648Z,18.18
2017-02-20T04:20:00.855Z,18.06
2017-02-20T04:21:11.188Z,18.11
2017-02-20T04:22:21.562Z,18.11
2017-02-20T04:23:31.518Z,17.95
2017-02-20T04:24:41.066Z,18.09
2017-02-20T04:25:51.281Z,18.13
2017-02-20T04:27:01.208Z,18.13
2017-02-20T04:28:11.573Z,18.15
2017-02-20T04:29:21.912Z,18.15
2017-02-20T04:30:32.257Z,18.08
2017-02-20T04:31:43.250Z,18.02
2017-02-20T04:32:54.011Z,18.05
2017-02-20T04:34:04.006Z,18
2017-02-20T04:35:14.360Z,18.08
2017-02-20T04:36:24.609Z,18.11
2017-02-20T04:37:34.817Z,18.12
2017-02-20T04:38:45.537Z,18.05
2017-02-20T04:39:55.096Z,18.16
2017-02-20T04:41:05.441Z,18.13
2017-02-20T04:42:14.992Z,18.12
2017-02-20T04:43:25.202Z,18
2017-02-20T04:44:35.208Z,18.13
2017-02-20T04:45:45.537Z,18.13
2017-02-20T04:46:55.888Z,18.16
2017-02-20T04:48:05.445Z,18.11
2017-02-20T04:49:16.459Z,18.05
2017-02-20T04:50:26.792Z,18.11
2017-02-20T04:51:37.547Z,18.15
2017-02-20T04:52:47.495Z,18.08
2017-02-20T04:53:57.863Z,18.15
2017-02-20T04:55:08.083Z,18.09
2017-02-20T04:56:18.032Z,18.11
2017-02-20T04:57:28.776Z,18.09
2017-02-20T04:58:38.339Z,18.09
2017-02-20T04:59:48.690Z,18.12
2017-02-20T05:00:59.375Z,18.15
2017-02-20T05:02:09.333Z,18.08
2017-02-20T05:03:18.883Z,18.12
2017-02-20T05:04:28.848Z,18.11
2017-02-20T05:05:39.208Z,18.15
2017-02-20T05:06:50.195Z,18.13
2017-02-20T05:08:00.939Z,18.11
2017-02-20T05:09:10.888Z,18.15
2017-02-20T05:10:21.244Z,18.09
2017-02-20T05:11:31.193Z,18.16
2017-02-20T05:12:41.419Z,18.11
2017-02-20T05:13:52.156Z,18.09
2017-02-20T05:15:01.737Z,18.06
2017-02-20T05:16:12.497Z,18.11
2017-02-20T05:17:23.240Z,18.09
2017-02-20T05:18:33.436Z,18.15
2017-02-20T05:19:43.397Z,18.13
2017-02-20T05:20:53.746Z,18.09
2017-02-20T05:22:03.698Z,18.12
2017-02-20T05:23:14.053Z,18.12
2017-02-20T05:24:24.692Z,18.08
2017-02-20T05:25:34.646Z,18.13
2017-02-20T05:26:44.603Z,18.18
2017-02-20T05:27:54.583Z,18.12
2017-02-20T05:29:04.933Z,18.13
2017-02-20T05:30:15.126Z,18.11
2017-02-20T05:31:25.455Z,18.05
2017-02-20T05:32:35.823Z,18.12
2017-02-20T05:33:45.778Z,18.09
2017-02-20T05:34:55.723Z,18.05
2017-02-20T05:36:06.719Z,18.08
2017-02-20T05:37:17.464Z,18.11
2017-02-20T05:38:28.202Z,18.12
2017-02-20T05:39:38.544Z,18.06
2017-02-20T05:40:48.888Z,18.09
2017-02-20T05:41:59.948Z,18.11
2017-02-20T05:43:10.719Z,18.13
2017-02-20T05:44:21.066Z,18.11
2017-02-20T05:45:31.420Z,18.15
2017-02-20T05:46:42.150Z,18.18
2017-02-20T05:47:53.225Z,18.13
2017-02-20T05:49:02.780Z,18.12
2017-02-20T05:50:13.125Z,18.09
2017-02-20T05:51:23.477Z,18.11
2017-02-20T05:52:33.847Z,18.08
2017-02-20T05:53:44.985Z,18.15
2017-02-20T05:54:55.327Z,18.08
2017-02-20T05:56:05.696Z,18.06
2017-02-20T05:57:15.849Z,18.26
2017-02-20T05:58:25.797Z,18.21
2017-02-20T05:59:36.844Z,18.27
2017-02-20T06:00:47.205Z,18.13
2017-02-20T06:01:57.948Z,18.13
2017-02-20T06:03:07.492Z,18.21
2017-02-20T06:04:17.044Z,18.21
2017-02-20T06:05:28.102Z,18.26
2017-02-20T06:06:38.454Z,18.26
2017-02-20T06:07:48.809Z,18.21
2017-02-20T06:08:59.535Z,18.15
2017-02-20T06:10:09.884Z,18.12
2017-02-20T06:11:20.498Z,18.12
2017-02-20T06:12:30.838Z,18.12
2017-02-20T06:13:41.583Z,18.24
2017-02-20T06:14:51.931Z,18.24
2017-02-20T06:16:01.922Z,18.24
2017-02-20T06:17:11.736Z,18.24
2017-02-20T06:18:21.693Z,18.21
2017-02-20T06:19:32.044Z,18.12
2017-02-20T06:20:42.393Z,18.09
2017-02-20T06:21:53.176Z,18.21
2017-02-20T06:23:03.825Z,18.23
2017-02-20T06:24:14.184Z,18.27
2017-02-20T06:25:24.524Z,18.23
2017-02-20T06:26:34.130Z,18.26
2017-02-20T06:27:44.520Z,18.28
2017-02-20T06:28:55.131Z,18.21
2017-02-20T06:30:05.483Z,18.24
2017-02-20T06:31:15.833Z,18.27
2017-02-20T06:32:26.190Z,18.26
2017-02-20T06:33:36.921Z,18.19
2017-02-20T06:34:47.519Z,18.23
2017-02-20T06:35:57.461Z,18.24
2017-02-20T06:37:08.207Z,18.3
2017-02-20T06:38:18.585Z,18.27
2017-02-20T06:39:29.318Z,18.24
2017-02-20T06:40:39.579Z,18.23
2017-02-20T06:41:50.338Z,18.24
2017-02-20T06:43:01.100Z,18.21
2017-02-20T06:44:11.439Z,18.19
2017-02-20T06:45:21.000Z,18.24
2017-02-20T06:46:31.649Z,18.21
2017-02-20T06:47:42.396Z,18.18
2017-02-20T06:48:53.147Z,18.24
2017-02-20T06:50:03.910Z,18.23
2017-02-20T06:51:13.880Z,18.26
2017-02-20T06:52:24.687Z,18.24
2017-02-20T06:53:34.649Z,18.36
2017-02-20T06:54:45.429Z,18.26
2017-02-20T06:55:55.775Z,18.34
2017-02-20T06:57:06.114Z,18.27
2017-02-20T06:58:15.935Z,18.36
2017-02-20T06:59:25.893Z,18.28
2017-02-20T07:00:36.265Z,18.19
2017-02-20T07:01:46.614Z,18.28
2017-02-20T07:02:56.562Z,18.34
2017-02-20T07:04:06.433Z,18.28
2017-02-20T07:05:16.399Z,18.24
2017-02-20T07:06:26.427Z,18.36
2017-02-20T07:07:37.192Z,18.33
2017-02-20T07:08:48.200Z,18.27
2017-02-20T07:09:58.872Z,18.34
2017-02-20T07:11:09.669Z,18.41
2017-02-20T07:12:20.042Z,18.33
2017-02-20T07:13:30.831Z,18.41
2017-02-20T07:14:40.813Z,18.23
2017-02-20T07:15:51.881Z,18.34
2017-02-20T07:17:01.857Z,18.33
2017-02-20T07:18:11.820Z,18.31
2017-02-20T07:19:22.618Z,18.3
2017-02-20T07:20:33.406Z,18.34
2017-02-20T07:21:44.441Z,18.36
2017-02-20T07:22:55.189Z,18.31
2017-02-20T07:24:05.936Z,18.37
2017-02-20T07:25:15.894Z,18.39
2017-02-20T07:26:26.293Z,18.49
2017-02-20T07:27:37.365Z,18.43
2017-02-20T07:28:48.099Z,18.34
2017-02-20T07:29:58.466Z,18.48
2017-02-20T07:31:09.230Z,18.39
2017-02-20T07:32:20.025Z,18.33
2017-02-20T07:33:30.286Z,18.34
2017-02-20T07:34:39.837Z,18.39
2017-02-20T07:35:49.406Z,18.41
2017-02-20T07:36:59.751Z,18.41
2017-02-20T07:38:09.704Z,18.34
2017-02-20T07:39:19.524Z,18.43
2017-02-20T07:40:30.311Z,18.33
2017-02-20T07:41:40.282Z,18.36
2017-02-20T07:42:51.061Z,18.34
2017-02-20T07:44:01.033Z,18.41
2017-02-20T07:45:11.649Z,18.42
2017-02-20T07:46:21.639Z,18.41
2017-02-20T07:47:32.005Z,18.37
2017-02-20T07:48:41.569Z,18.37
2017-02-20T07:49:52.316Z,18.34
2017-02-20T07:51:02.562Z,18.46
2017-02-20T07:52:12.918Z,18.42
2017-02-20T07:53:23.305Z,18.34
2017-02-20T07:54:33.258Z,18.41
2017-02-20T07:55:43.626Z,18.45
2017-02-20T07:56:54.270Z,18.48
2017-02-20T07:58:04.234Z,18.43
2017-02-20T07:59:14.580Z,18.48
2017-02-20T08:00:24.936Z,18.51
2017-02-20T08:01:34.919Z,18.48
2017-02-20T08:02:45.931Z,18.48
2017-02-20T08:03:56.306Z,18.46
2017-02-20T08:05:06.683Z,18.46
2017-02-20T08:06:17.447Z,18.52
2017-02-20T08:07:27.818Z,18.41
2017-02-20T08:08:38.033Z,18.43
2017-02-20T08:09:48.382Z,18.43
2017-02-20T08:10:58.366Z,18.51
2017-02-20T08:12:09.153Z,18.46
2017-02-20T08:13:19.498Z,18.48
2017-02-20T08:14:30.484Z,18.49
2017-02-20T08:15:41.233Z,18.49
2017-02-20T08:16:51.988Z,18.53
2017-02-20T08:18:02.356Z,18.6
2017-02-20T08:19:12.311Z,18.58
2017-02-20T08:20:22.138Z,18.67
2017-02-20T08:21:32.884Z,18.57
2017-02-20T08:22:43.270Z,18.68
2017-02-20T08:23:53.620Z,18.57
2017-02-20T08:25:03.607Z,18.63
2017-02-20T08:26:14.215Z,18.58
2017-02-20T08:27:24.192Z,18.6
2017-02-20T08:28:35.208Z,18.68
2017-02-20T08:29:45.571Z,18.68
2017-02-20T08:30:56.333Z,18.71
2017-02-20T08:32:07.345Z,18.67
2017-02-20T08:33:18.129Z,18.73
2017-02-20T08:34:28.500Z,18.79
2017-02-20T08:35:39.239Z,18.76
2017-02-20T08:36:49.988Z,18.78
2017-02-20T08:38:00.577Z,18.76
2017-02-20T08:39:11.331Z,18.85
2017-02-20T08:40:21.309Z,18.79
2017-02-20T08:41:31.264Z,18.88
2017-02-20T08:42:41.642Z,18.91
2017-02-20T08:43:52.260Z,18.86
2017-02-20T08:45:02.227Z,18.85
2017-02-20T08:46:12.609Z,18.88
2017-02-20T08:47:23.021Z,18.89
2017-02-20T08:48:33.395Z,18.82
2017-02-20T08:49:44.406Z,18.89
2017-02-20T08:50:54.372Z,18.91
2017-02-20T08:52:05.150Z,18.85
2017-02-20T08:53:15.543Z,18.92
2017-02-20T08:54:26.314Z,18.97
2017-02-20T08:55:37.194Z,18.97
2017-02-20T08:56:47.962Z,19.05
2017-02-20T08:57:57.949Z,18.94
2017-02-20T08:59:07.907Z,18.96
2017-02-20T09:00:18.280Z,18.92
2017-02-20T09:01:29.331Z,19
2017-02-20T09:02:39.303Z,19
2017-02-20T09:03:49.672Z,18.89
2017-02-20T09:04:59.645Z,18.88
2017-02-20T09:06:10.436Z,18.83
2017-02-20T09:07:21.120Z,18.91
2017-02-20T09:08:31.924Z,18.91
2017-02-20T09:09:41.903Z,19
2017-02-20T09:10:52.291Z,19.05
2017-02-20T09:12:03.053Z,18.96
2017-02-20T09:13:14.055Z,18.94
2017-02-20T09:14:24.451Z,19.04
2017-02-20T09:15:34.853Z,19.08
2017-02-20T09:16:45.210Z,19.04
2017-02-20T09:17:55.572Z,19.08
2017-02-20T09:19:06.642Z,19.07
2017-02-20T09:20:16.744Z,19.16
2017-02-20T09:21:27.541Z,19.19
2017-02-20T09:22:38.365Z,19.22
2017-02-20T09:23:48.349Z,19.22
2017-02-20T09:24:58.601Z,19.2
2017-02-20T09:26:08.973Z,19.24
2017-02-20T09:27:19.715Z,19.24
2017-02-20T09:28:30.091Z,19.29
2017-02-20T09:29:40.056Z,19.32
2017-02-20T09:30:50.264Z,19.27
2017-02-20T09:32:00.654Z,19.39
2017-02-20T09:33:10.999Z,19.37
2017-02-20T09:34:21.386Z,19.38
2017-02-20T09:35:31.746Z,19.48
2017-02-20T09:36:42.798Z,19.38
2017-02-20T09:37:52.800Z,19.32
2017-02-20T09:39:03.213Z,19.35
2017-02-20T09:40:12.417Z,19.41
2017-02-20T09:41:22.028Z,19.29
2017-02-20T09:42:32.616Z,19.37
2017-02-20T09:43:42.999Z,19.42
2017-02-20T09:44:53.791Z,19.32
2017-02-20T09:46:04.573Z,19.35
2017-02-20T09:47:14.529Z,19.41
2017-02-20T09:48:25.707Z,19.35
2017-02-20T09:49:36.503Z,19.34
2017-02-20T09:50:46.887Z,19.38
2017-02-20T09:51:57.642Z,19.37
2017-02-20T09:53:07.632Z,19.39
2017-02-20T09:54:18.680Z,19.37
2017-02-20T09:55:29.075Z,19.38
2017-02-20T09:56:39.822Z,19.32
2017-02-20T09:57:50.176Z,19.44
2017-02-20T09:59:00.938Z,19.39
2017-02-20T10:00:11.229Z,19.49
2017-02-20T10:01:21.999Z,19.48
2017-02-20T10:02:32.353Z,19.42
2017-02-20T10:03:43.111Z,19.42
2017-02-20T10:04:53.483Z,19.48
2017-02-20T10:06:03.315Z,19.44
2017-02-20T10:07:13.667Z,19.53
2017-02-20T10:08:24.441Z,19.49
2017-02-20T10:09:35.218Z,19.48
2017-02-20T10:10:45.968Z,19.52
2017-02-20T10:11:56.614Z,19.48
2017-02-20T10:13:07.379Z,19.41
2017-02-20T10:14:17.734Z,19.39
2017-02-20T10:15:28.516Z,19.48
2017-02-20T10:16:38.889Z,19.42
2017-02-20T10:17:49.527Z,19.48
2017-02-20T10:18:59.897Z,19.48
2017-02-20T10:20:10.243Z,19.44
2017-02-20T10:21:20.585Z,19.42
2017-02-20T10:22:30.934Z,19.44
2017-02-20T10:23:41.212Z,19.44
2017-02-20T10:24:51.624Z,19.44
2017-02-20T10:26:01.612Z,19.52
2017-02-20T10:27:11.977Z,19.41
2017-02-20T10:28:22.346Z,19.52
2017-02-20T10:29:33.346Z,19.44
2017-02-20T10:30:44.092Z,19.48
2017-02-20T10:31:53.647Z,19.49
2017-02-20T10:33:03.993Z,19.39
2017-02-20T10:34:13.950Z,19.47
2017-02-20T10:35:24.647Z,19.53
2017-02-20T10:36:35.045Z,19.55
2017-02-20T10:37:45.023Z,19.53
2017-02-20T10:38:55.843Z,19.64
2017-02-20T10:40:06.224Z,19.6
2017-02-20T10:41:16.444Z,19.66
2017-02-20T10:42:27.222Z,19.67
2017-02-20T10:43:37.613Z,19.62
2017-02-20T10:44:46.796Z,19.64
2017-02-20T10:45:57.557Z,19.7
2017-02-20T10:47:08.214Z,19.67
2017-02-20T10:48:19.037Z,19.64
2017-02-20T10:49:29.051Z,19.66
2017-02-20T10:50:39.797Z,19.6
2017-02-20T10:51:50.627Z,19.63
2017-02-20T10:53:01.296Z,19.71
2017-02-20T10:54:12.074Z,19.53
2017-02-20T10:55:22.446Z,19.64
2017-02-20T10:56:33.328Z,19.7
2017-02-20T10:57:43.146Z,19.63
2017-02-20T10:58:53.949Z,19.71
2017-02-20T11:00:04.054Z,19.78
2017-02-20T11:01:14.818Z,19.71
2017-02-20T11:02:24.803Z,19.75
2017-02-20T11:03:35.617Z,19.74
2017-02-20T11:04:46.262Z,19.77
2017-02-20T11:05:56.217Z,19.79
2017-02-20T11:07:06.671Z,19.89
2017-02-20T11:08:15.836Z,19.84
2017-02-20T11:09:25.312Z,19.89
2017-02-20T11:10:36.070Z,19.92
2017-02-20T11:11:46.905Z,19.97
2017-02-20T11:12:57.779Z,19.85
2017-02-20T11:14:08.541Z,19.81
2017-02-20T11:15:19.581Z,19.89
2017-02-20T11:16:30.344Z,19.94
2017-02-20T11:17:40.329Z,19.89
2017-02-20T11:18:50.706Z,19.85
2017-02-20T11:20:01.507Z,20.03
2017-02-20T11:21:11.875Z,19.93
2017-02-20T11:22:21.462Z,19.96
2017-02-20T11:23:31.418Z,19.89
2017-02-20T11:24:41.808Z,19.85
2017-02-20T11:25:52.820Z,19.85
2017-02-20T11:27:03.571Z,19.84
2017-02-20T11:28:13.948Z,19.81
2017-02-20T11:29:23.526Z,19.75
2017-02-20T11:30:33.497Z,19.89
2017-02-20T11:31:44.172Z,19.94
2017-02-20T11:32:54.550Z,19.87
2017-02-20T11:34:05.538Z,19.9
2017-02-20T11:35:16.307Z,19.92
2017-02-20T11:36:27.068Z,20.03
2017-02-20T11:37:37.289Z,20.02
2017-02-20T11:38:48.050Z,19.99
2017-02-20T11:39:58.838Z,19.99
2017-02-20T11:41:09.238Z,19.9
2017-02-20T11:42:19.993Z,19.87
2017-02-20T11:43:31.007Z,20.03
2017-02-20T11:44:41.770Z,19.99
2017-02-20T11:45:52.144Z,19.92
2017-02-20T11:47:02.921Z,19.9
2017-02-20T11:48:13.825Z,19.9
2017-02-20T11:49:24.906Z,19.96
2017-02-20T11:50:35.248Z,19.89
2017-02-20T11:51:45.606Z,19.96
2017-02-20T11:52:55.996Z,19.81
2017-02-20T11:54:05.951Z,19.85
2017-02-20T11:55:16.166Z,19.84
2017-02-20T11:56:26.118Z,19.84
2017-02-20T11:57:36.889Z,19.84
2017-02-20T11:58:47.635Z,19.85
2017-02-20T11:59:57.609Z,19.79
2017-02-20T12:01:07.823Z,19.74
2017-02-20T12:02:17.796Z,19.75
2017-02-20T12:03:28.548Z,19.84
2017-02-20T12:04:38.499Z,19.79
2017-02-20T12:05:48.852Z,19.81
2017-02-20T12:06:59.064Z,19.84
2017-02-20T12:08:09.845Z,19.77
2017-02-20T12:09:19.032Z,19.78
2017-02-20T12:10:29.399Z,19.79
2017-02-20T12:11:40.173Z,19.75
2017-02-20T12:12:50.787Z,19.87
2017-02-20T12:14:01.162Z,19.84
2017-02-20T12:15:11.530Z,19.78
2017-02-20T12:16:21.917Z,19.87
2017-02-20T12:17:31.905Z,19.79
2017-02-20T12:18:42.531Z,19.85
2017-02-20T12:19:52.905Z,19.79
2017-02-20T12:21:03.297Z,19.78
2017-02-20T12:22:13.671Z,19.79
2017-02-20T12:23:24.460Z,19.82
2017-02-20T12:24:35.226Z,19.78
2017-02-20T12:25:45.242Z,19.81
2017-02-20T12:26:54.813Z,19.82
2017-02-20T12:28:05.612Z,19.82
2017-02-20T12:29:16.731Z,19.75
2017-02-20T12:30:27.161Z,19.79
2017-02-20T12:31:37.145Z,19.87
2017-02-20T12:32:47.524Z,19.78
2017-02-20T12:33:58.285Z,19.84
2017-02-20T12:35:08.590Z,19.84
2017-02-20T12:36:19.377Z,19.74
2017-02-20T12:37:30.165Z,19.78
2017-02-20T12:38:40.541Z,19.85
2017-02-20T12:39:51.328Z,19.77
2017-02-20T12:41:01.991Z,19.77
2017-02-20T12:42:12.358Z,19.85
2017-02-20T12:43:23.149Z,19.84
2017-02-20T12:44:33.926Z,19.77
2017-02-20T12:45:44.095Z,19.84
2017-02-20T12:46:54.311Z,19.82
2017-02-20T12:48:05.078Z,19.93
2017-02-20T12:49:15.049Z,19.89
2017-02-20T12:50:25.422Z,19.84
2017-02-20T12:51:36.233Z,19.84
2017-02-20T12:52:46.997Z,19.92
2017-02-20T12:53:56.985Z,19.96
2017-02-20T12:55:07.345Z,20.02
2017-02-20T12:56:18.099Z,19.94
2017-02-20T12:57:27.569Z,19.94
2017-02-20T12:58:37.564Z,19.87
2017-02-20T12:59:48.341Z,19.93
2017-02-20T13:00:58.521Z,20.27
2017-02-20T13:02:08.470Z,20.98
2017-02-20T13:03:19.538Z,20.7
2017-02-20T13:04:29.924Z,20.55
2017-02-20T13:05:40.342Z,20.44
2017-02-20T13:06:50.345Z,20.42
2017-02-20T13:08:01.149Z,20.3
2017-02-20T13:09:11.814Z,20.3
2017-02-20T13:10:22.233Z,20.39
2017-02-20T13:11:32.848Z,20.33
2017-02-20T13:12:43.210Z,20.37
2017-02-20T13:13:53.991Z,20.34
2017-02-20T13:15:04.611Z,20.32
2017-02-20T13:16:15.054Z,20.36
2017-02-20T13:17:25.807Z,20.26
2017-02-20T13:18:36.220Z,20.19
2017-02-20T13:19:46.569Z,20.32
2017-02-20T13:20:56.778Z,20.26
2017-02-20T13:22:07.558Z,20.19
2017-02-20T13:23:18.531Z,20.33
2017-02-20T13:24:29.297Z,20.3
2017-02-20T13:25:39.273Z,20.32
2017-02-20T13:26:50.345Z,20.24
2017-02-20T13:28:00.318Z,20.22
2017-02-20T13:29:11.079Z,20.32
2017-02-20T13:30:21.862Z,20.24
2017-02-20T13:31:32.633Z,20.22
2017-02-20T13:32:43.641Z,20.18
2017-02-20T13:33:54.418Z,20.37
2017-02-20T13:35:05.174Z,20.32
2017-02-20T13:36:15.578Z,20.34
2017-02-20T13:37:25.972Z,20.34
2017-02-20T13:38:36.979Z,20.26
2017-02-20T13:39:47.760Z,20.19
2017-02-20T13:40:58.162Z,20.34
2017-02-20T13:42:08.535Z,20.33
2017-02-20T13:43:19.328Z,20.22
2017-02-20T13:44:30.419Z,20.26
2017-02-20T13:45:41.266Z,20.19
2017-02-20T13:46:51.254Z,20.3
2017-02-20T13:48:00.829Z,20.26
2017-02-20T13:49:10.807Z,20.32
2017-02-20T13:50:21.435Z,20.27
2017-02-20T13:51:31.808Z,20.19
2017-02-20T13:52:41.769Z,20.29
2017-02-20T13:53:52.124Z,20.22
2017-02-20T13:55:02.879Z,20.17
2017-02-20T13:56:13.503Z,20.24
2017-02-20T13:57:23.867Z,20.21
2017-02-20T13:58:34.236Z,20.19
2017-02-20T13:59:44.231Z,20.24
2017-02-20T14:00:54.568Z,20.24
2017-02-20T14:02:05.258Z,20.21
2017-02-20T14:03:16.009Z,20.26
2017-02-20T14:04:26.387Z,20.22
2017-02-20T14:05:36.382Z,20.21
2017-02-20T14:06:46.356Z,20.26
2017-02-20T14:07:57.455Z,20.21
2017-02-20T14:09:07.835Z,20.26
2017-02-20T14:10:17.850Z,20.27
2017-02-20T14:11:28.675Z,20.19
2017-02-20T14:12:39.434Z,20.26
2017-02-20T14:13:50.059Z,20.21
2017-02-20T14:15:00.061Z,20.19
2017-02-20T14:16:10.499Z,20.18
2017-02-20T14:17:20.479Z,20.24
2017-02-20T14:18:31.257Z,20.17
2017-02-20T14:19:41.933Z,20.21
2017-02-20T14:20:52.316Z,20.18
2017-02-20T14:22:02.317Z,20.15
2017-02-20T14:23:13.120Z,20.18
2017-02-20T14:24:23.089Z,20.12
2017-02-20T14:25:34.134Z,20.1
2017-02-20T14:26:44.090Z,20.12
2017-02-20T14:27:54.439Z,20.14
2017-02-20T14:29:04.813Z,20.14
2017-02-20T14:30:15.206Z,20.12
2017-02-20T14:31:25.897Z,20.11
2017-02-20T14:32:35.894Z,20.1
2017-02-20T14:33:46.665Z,20.11
2017-02-20T14:34:57.462Z,20.1
2017-02-20T14:36:08.230Z,20.12
2017-02-20T14:37:18.870Z,20.1
2017-02-20T14:38:29.244Z,20.08
2017-02-20T14:39:39.629Z,20.04
2017-02-20T14:40:49.996Z,20
2017-02-20T14:42:00.390Z,20.12
2017-02-20T14:43:11.510Z,20.1
2017-02-20T14:44:22.275Z,20
2017-02-20T14:45:32.643Z,20.11
2017-02-20T14:46:42.643Z,20.02
2017-02-20T14:47:53.007Z,20.02
2017-02-20T14:49:04.057Z,20.03
2017-02-20T14:50:14.012Z,20.03
2017-02-20T14:51:24.402Z,20.08
2017-02-20T14:52:34.780Z,20.08
2017-02-20T14:53:45.162Z,19.99
2017-02-20T14:54:55.817Z,20
2017-02-20T14:56:06.192Z,19.96
2017-02-20T14:57:16.547Z,19.97
2017-02-20T14:58:27.289Z,19.97
2017-02-20T14:59:37.664Z,20.02
2017-02-20T15:00:48.668Z,19.97
2017-02-20T15:01:59.446Z,20.03
2017-02-20T15:03:10.211Z,19.94
2017-02-20T15:04:19.818Z,20.02
2017-02-20T15:05:30.590Z,19.94
2017-02-20T15:06:41.253Z,20.03
2017-02-20T15:07:51.657Z,19.93
2017-02-20T15:09:02.275Z,20